sensor_id;sensor_type;location;lat;lon;timestamp;pressure;altitude;pressure_sealevel;temperature;humidity
83100;BME280;72972;51.784;4.660;2023-12-07T00:01:14;102205.38;;;0.25;87.73
83100;BME280;72972;51.784;4.660;2023-12-07T00:03:39;102202.88;;;0.22;87.83
83100;BME280;72972;51.784;4.660;2023-12-07T00:06:05;102202.59;;;0.26;87.15
83100;BME280;72972;51.784;4.660;2023-12-07T00:08:30;102209.06;;;0.24;86.93
83100;BME280;72972;51.784;4.660;2023-12-07T00:10:56;102202.69;;;0.25;87.29
83100;BME280;72972;51.784;4.660;2023-12-07T00:13:22;102194.03;;;0.20;87.10
83100;BME280;72972;51.784;4.660;2023-12-07T00:15:47;102196.84;;;0.18;86.92
83100;BME280;72972;51.784;4.660;2023-12-07T00:18:13;102196.25;;;0.13;87.02
83100;BME280;72972;51.784;4.660;2023-12-07T00:20:38;102202.72;;;0.11;86.39
83100;BME280;72972;51.784;4.660;2023-12-07T00:23:04;102196.75;;;0.06;86.68
83100;BME280;72972;51.784;4.660;2023-12-07T00:25:30;102191.84;;;-0.02;86.99
83100;BME280;72972;51.784;4.660;2023-12-07T00:27:55;102203.09;;;0.05;86.88
83100;BME280;72972;51.784;4.660;2023-12-07T00:30:21;102201.75;;;-0.03;87.48
83100;BME280;72972;51.784;4.660;2023-12-07T00:32:46;102201.34;;;0.03;87.65
83100;BME280;72972;51.784;4.660;2023-12-07T00:35:12;102199.25;;;0.09;87.27
83100;BME280;72972;51.784;4.660;2023-12-07T00:37:39;102193.47;;;0.00;87.46
83100;BME280;72972;51.784;4.660;2023-12-07T00:40:05;102190.97;;;-0.03;87.52
83100;BME280;72972;51.784;4.660;2023-12-07T00:42:31;102188.25;;;-0.03;87.36
83100;BME280;72972;51.784;4.660;2023-12-07T00:44:57;102192.03;;;-0.05;86.70
83100;BME280;72972;51.784;4.660;2023-12-07T00:47:22;102184.53;;;-0.14;87.15
83100;BME280;72972;51.784;4.660;2023-12-07T00:49:48;102191.72;;;-0.15;88.02
83100;BME280;72972;51.784;4.660;2023-12-07T00:52:14;102186.94;;;-0.10;86.96
83100;BME280;72972;51.784;4.660;2023-12-07T00:54:40;102191.84;;;-0.02;87.09
83100;BME280;72972;51.784;4.660;2023-12-07T00:57:06;102189.53;;;-0.08;87.67
83100;BME280;72972;51.784;4.660;2023-12-07T00:59:32;102182.38;;;-0.09;87.43
83100;BME280;72972;51.784;4.660;2023-12-07T01:02:08;102187.88;;;-0.11;87.09
83100;BME280;72972;51.784;4.660;2023-12-07T01:04:33;102185.47;;;-0.15;87.22
83100;BME280;72972;51.784;4.660;2023-12-07T01:06:59;102196.44;;;-0.18;87.35
83100;BME280;72972;51.784;4.660;2023-12-07T01:09:25;102192.13;;;-0.21;87.13
83100;BME280;72972;51.784;4.660;2023-12-07T01:11:51;102195.78;;;-0.22;87.67
83100;BME280;72972;51.784;4.660;2023-12-07T01:14:17;102187.69;;;-0.22;87.37
83100;BME280;72972;51.784;4.660;2023-12-07T01:16:44;102200.59;;;-0.13;87.22
83100;BME280;72972;51.784;4.660;2023-12-07T01:19:10;102202.59;;;-0.16;87.17
83100;BME280;72972;51.784;4.660;2023-12-07T01:21:42;102191.53;;;-0.12;86.89
83100;BME280;72972;51.784;4.660;2023-12-07T01:24:08;102201.91;;;-0.20;86.35
83100;BME280;72972;51.784;4.660;2023-12-07T01:26:34;102212.31;;;-0.14;86.76
83100;BME280;72972;51.784;4.660;2023-12-07T01:28:59;102202.50;;;-0.15;86.82
83100;BME280;72972;51.784;4.660;2023-12-07T01:31:25;102210.78;;;-0.18;86.45
83100;BME280;72972;51.784;4.660;2023-12-07T01:33:50;102199.50;;;-0.24;86.18
83100;BME280;72972;51.784;4.660;2023-12-07T01:36:16;102201.56;;;-0.28;86.90
83100;BME280;72972;51.784;4.660;2023-12-07T01:38:42;102179.78;;;-0.39;86.97
83100;BME280;72972;51.784;4.660;2023-12-07T01:41:09;102200.69;;;-0.28;87.39
83100;BME280;72972;51.784;4.660;2023-12-07T01:43:34;102198.66;;;-0.25;87.48
83100;BME280;72972;51.784;4.660;2023-12-07T01:46:00;102193.66;;;-0.31;87.49
83100;BME280;72972;51.784;4.660;2023-12-07T01:48:26;102197.09;;;-0.29;87.40
83100;BME280;72972;51.784;4.660;2023-12-07T01:50:56;102189.59;;;-0.38;87.65
83100;BME280;72972;51.784;4.660;2023-12-07T01:53:23;102203.47;;;-0.30;87.95
83100;BME280;72972;51.784;4.660;2023-12-07T01:55:51;102199.81;;;-0.29;88.13
83100;BME280;72972;51.784;4.660;2023-12-07T01:58:17;102199.41;;;-0.23;88.17
83100;BME280;72972;51.784;4.660;2023-12-07T02:00:43;102205.59;;;-0.21;88.10
83100;BME280;72972;51.784;4.660;2023-12-07T02:03:10;102196.63;;;-0.21;88.18
83100;BME280;72972;51.784;4.660;2023-12-07T02:05:36;102198.38;;;-0.20;88.25
83100;BME280;72972;51.784;4.660;2023-12-07T02:08:03;102196.06;;;-0.26;88.45
83100;BME280;72972;51.784;4.660;2023-12-07T02:10:28;102200.59;;;-0.27;88.37
83100;BME280;72972;51.784;4.660;2023-12-07T02:12:54;102190.69;;;-0.26;89.00
83100;BME280;72972;51.784;4.660;2023-12-07T02:15:20;102191.34;;;-0.23;88.98
83100;BME280;72972;51.784;4.660;2023-12-07T02:17:50;102195.78;;;-0.22;89.37
83100;BME280;72972;51.784;4.660;2023-12-07T02:20:22;102193.09;;;-0.22;89.74
83100;BME280;72972;51.784;4.660;2023-12-07T02:22:57;102200.69;;;-0.14;89.63
83100;BME280;72972;51.784;4.660;2023-12-07T02:25:33;102194.34;;;-0.13;89.47
83100;BME280;72972;51.784;4.660;2023-12-07T02:28:00;102202.41;;;-0.13;89.34
83100;BME280;72972;51.784;4.660;2023-12-07T02:30:26;102207.53;;;-0.09;89.24
83100;BME280;72972;51.784;4.660;2023-12-07T02:32:51;102195.13;;;-0.11;89.44
83100;BME280;72972;51.784;4.660;2023-12-07T02:35:20;102193.34;;;-0.12;89.78
83100;BME280;72972;51.784;4.660;2023-12-07T02:37:49;102196.25;;;-0.15;89.76
83100;BME280;72972;51.784;4.660;2023-12-07T02:40:18;102192.69;;;-0.16;90.15
83100;BME280;72972;51.784;4.660;2023-12-07T02:42:45;102196.94;;;-0.12;90.08
83100;BME280;72972;51.784;4.660;2023-12-07T02:45:11;102201.16;;;-0.08;89.84
83100;BME280;72972;51.784;4.660;2023-12-07T02:47:37;102203.28;;;-0.13;89.91
83100;BME280;72972;51.784;4.660;2023-12-07T02:50:05;102182.97;;;-0.18;90.08
83100;BME280;72972;51.784;4.660;2023-12-07T02:52:31;102191.22;;;-0.21;89.90
83100;BME280;72972;51.784;4.660;2023-12-07T02:54:57;102208.00;;;-0.16;90.03
83100;BME280;72972;51.784;4.660;2023-12-07T02:57:22;102203.78;;;-0.20;90.53
83100;BME280;72972;51.784;4.660;2023-12-07T02:59:51;102201.19;;;-0.22;90.61
83100;BME280;72972;51.784;4.660;2023-12-07T03:02:17;102195.78;;;-0.22;90.47
83100;BME280;72972;51.784;4.660;2023-12-07T03:04:42;102206.00;;;-0.13;90.24
83100;BME280;72972;51.784;4.660;2023-12-07T03:07:08;102207.91;;;-0.15;89.98
83100;BME280;72972;51.784;4.660;2023-12-07T03:09:33;102212.41;;;-0.15;91.26
83100;BME280;72972;51.784;4.660;2023-12-07T03:11:58;102225.59;;;-0.11;93.24
83100;BME280;72972;51.784;4.660;2023-12-07T03:14:24;102221.50;;;-0.02;94.07
83100;BME280;72972;51.784;4.660;2023-12-07T03:16:49;102223.41;;;0.10;94.95
83100;BME280;72972;51.784;4.660;2023-12-07T03:19:15;102216.66;;;0.17;95.13
83100;BME280;72972;51.784;4.660;2023-12-07T03:21:41;102203.06;;;0.19;95.04
83100;BME280;72972;51.784;4.660;2023-12-07T03:24:08;102209.06;;;0.24;95.86
83100;BME280;72972;51.784;4.660;2023-12-07T03:26:34;102214.84;;;0.32;95.68
83100;BME280;72972;51.784;4.660;2023-12-07T03:29:00;102223.47;;;0.37;95.85
83100;BME280;72972;51.784;4.660;2023-12-07T03:31:26;102223.88;;;0.31;95.63
83100;BME280;72972;51.784;4.660;2023-12-07T03:33:52;102217.25;;;0.36;95.34
83100;BME280;72972;51.784;4.660;2023-12-07T03:36:18;102229.75;;;0.37;95.98
83100;BME280;72972;51.784;4.660;2023-12-07T03:38:43;102228.72;;;0.40;96.04
83100;BME280;72972;51.784;4.660;2023-12-07T03:41:09;102228.63;;;0.41;96.18
83100;BME280;72972;51.784;4.660;2023-12-07T03:43:34;102234.47;;;0.48;95.82
83100;BME280;72972;51.784;4.660;2023-12-07T03:46:03;102233.13;;;0.41;96.15
83100;BME280;72972;51.784;4.660;2023-12-07T03:48:29;102220.78;;;0.37;95.91
83100;BME280;72972;51.784;4.660;2023-12-07T03:50:55;102227.34;;;0.33;96.01
83100;BME280;72972;51.784;4.660;2023-12-07T03:53:20;102230.34;;;0.42;95.99
83100;BME280;72972;51.784;4.660;2023-12-07T03:55:45;102223.22;;;0.41;95.95
83100;BME280;72972;51.784;4.660;2023-12-07T03:58:11;102226.97;;;0.39;96.24
83100;BME280;72972;51.784;4.660;2023-12-07T04:00:38;102224.25;;;0.39;95.87
83100;BME280;72972;51.784;4.660;2023-12-07T04:03:04;102227.94;;;0.38;95.96
83100;BME280;72972;51.784;4.660;2023-12-07T04:05:30;102229.16;;;0.32;95.94
83100;BME280;72972;51.784;4.660;2023-12-07T04:07:56;102225.72;;;0.30;96.07
83100;BME280;72972;51.784;4.660;2023-12-07T04:10:22;102230.63;;;0.24;96.80
83100;BME280;72972;51.784;4.660;2023-12-07T04:12:47;102227.34;;;0.19;96.77
83100;BME280;72972;51.784;4.660;2023-12-07T04:15:12;102226.59;;;0.17;96.96
83100;BME280;72972;51.784;4.660;2023-12-07T04:17:38;102216.50;;;0.06;96.38
83100;BME280;72972;51.784;4.660;2023-12-07T04:20:04;102227.09;;;0.09;96.71
83100;BME280;72972;51.784;4.660;2023-12-07T04:22:31;102223.72;;;0.06;96.55
83100;BME280;72972;51.784;4.660;2023-12-07T04:24:56;102224.69;;;0.05;96.85
83100;BME280;72972;51.784;4.660;2023-12-07T04:27:22;102225.03;;;0.13;96.57
83100;BME280;72972;51.784;4.660;2023-12-07T04:29:47;102210.22;;;0.06;96.34
83100;BME280;72972;51.784;4.660;2023-12-07T04:32:13;102229.78;;;-0.05;96.47
83100;BME280;72972;51.784;4.660;2023-12-07T04:34:38;102212.41;;;-0.15;96.43
83100;BME280;72972;51.784;4.660;2023-12-07T04:37:04;102217.44;;;-0.09;96.99
83100;BME280;72972;51.784;4.660;2023-12-07T04:39:30;102216.38;;;-0.07;96.90
83100;BME280;72972;51.784;4.660;2023-12-07T04:41:56;102210.41;;;-0.12;97.42
83100;BME280;72972;51.784;4.660;2023-12-07T04:44:21;102204.53;;;-0.04;96.53
83100;BME280;72972;51.784;4.660;2023-12-07T04:46:47;102195.22;;;-0.13;96.58
83100;BME280;72972;51.784;4.660;2023-12-07T04:49:12;102202.22;;;-0.10;96.95
83100;BME280;72972;51.784;4.660;2023-12-07T04:51:38;102213.88;;;-0.10;97.04
83100;BME280;72972;51.784;4.660;2023-12-07T04:54:03;102206.84;;;-0.12;97.30
83100;BME280;72972;51.784;4.660;2023-12-07T04:56:29;102181.22;;;-0.33;97.32
83100;BME280;72972;51.784;4.660;2023-12-07T04:58:54;102216.69;;;-0.11;97.15
83100;BME280;72972;51.784;4.660;2023-12-07T05:01:20;102208.97;;;-0.17;96.95
83100;BME280;72972;51.784;4.660;2023-12-07T05:03:45;102210.88;;;-0.19;97.22
83100;BME280;72972;51.784;4.660;2023-12-07T05:06:11;102212.59;;;-0.18;97.01
83100;BME280;72972;51.784;4.660;2023-12-07T05:08:38;102214.38;;;-0.17;97.16
83100;BME280;72972;51.784;4.660;2023-12-07T05:11:04;102196.81;;;-0.24;97.13
83100;BME280;72972;51.784;4.660;2023-12-07T05:13:30;102215.59;;;-0.09;97.39
83100;BME280;72972;51.784;4.660;2023-12-07T05:15:55;102215.31;;;-0.04;97.36
83100;BME280;72972;51.784;4.660;2023-12-07T05:18:21;102207.13;;;-0.03;96.95
83100;BME280;72972;51.784;4.660;2023-12-07T05:20:46;102213.69;;;-0.07;97.22
83100;BME280;72972;51.784;4.660;2023-12-07T05:23:12;102219.09;;;-0.07;97.35
83100;BME280;72972;51.784;4.660;2023-12-07T05:25:37;102209.94;;;-0.04;97.32
83100;BME280;72972;51.784;4.660;2023-12-07T05:28:03;102204.63;;;-0.06;97.53
83100;BME280;72972;51.784;4.660;2023-12-07T05:30:28;102198.84;;;0.00;97.21
83100;BME280;72972;51.784;4.660;2023-12-07T05:32:54;102195.13;;;0.03;97.53
83100;BME280;72972;51.784;4.660;2023-12-07T05:35:20;102193.94;;;0.07;97.41
83100;BME280;72972;51.784;4.660;2023-12-07T05:37:45;102171.31;;;-0.05;97.20
83100;BME280;72972;51.784;4.660;2023-12-07T05:40:11;102185.66;;;0.10;97.49
83100;BME280;72972;51.784;4.660;2023-12-07T05:42:38;102190.56;;;0.18;97.65
83100;BME280;72972;51.784;4.660;2023-12-07T05:45:04;102191.34;;;0.20;97.87
83100;BME280;72972;51.784;4.660;2023-12-07T05:47:31;102184.00;;;0.22;97.79
83100;BME280;72972;51.784;4.660;2023-12-07T05:49:57;102173.78;;;0.27;97.40
83100;BME280;72972;51.784;4.660;2023-12-07T05:52:25;102182.75;;;0.27;97.71
83100;BME280;72972;51.784;4.660;2023-12-07T05:54:50;102163.78;;;0.29;97.65
83100;BME280;72972;51.784;4.660;2023-12-07T05:57:16;102149.81;;;0.22;97.83
83100;BME280;72972;51.784;4.660;2023-12-07T05:59:42;102163.28;;;0.36;97.69
83100;BME280;72972;51.784;4.660;2023-12-07T06:02:08;102168.56;;;0.38;97.66
83100;BME280;72972;51.784;4.660;2023-12-07T06:04:34;102164.31;;;0.34;98.21
83100;BME280;72972;51.784;4.660;2023-12-07T06:07:00;102173.28;;;0.34;98.00
83100;BME280;72972;51.784;4.660;2023-12-07T06:09:25;102178.59;;;0.36;98.37
83100;BME280;72972;51.784;4.660;2023-12-07T06:11:51;102174.81;;;0.38;98.46
83100;BME280;72972;51.784;4.660;2023-12-07T06:14:17;102162.50;;;0.34;98.55
83100;BME280;72972;51.784;4.660;2023-12-07T06:16:45;102181.28;;;0.36;98.62
83100;BME280;72972;51.784;4.660;2023-12-07T06:19:11;102170.00;;;0.43;98.77
83100;BME280;72972;51.784;4.660;2023-12-07T06:21:36;102159.91;;;0.33;98.85
83100;BME280;72972;51.784;4.660;2023-12-07T06:24:02;102151.03;;;0.31;98.45
83100;BME280;72972;51.784;4.660;2023-12-07T06:26:27;102171.56;;;0.33;98.45
83100;BME280;72972;51.784;4.660;2023-12-07T06:28:53;102184.66;;;0.39;99.08
83100;BME280;72972;51.784;4.660;2023-12-07T06:31:21;102188.97;;;0.42;98.84
83100;BME280;72972;51.784;4.660;2023-12-07T06:33:47;102173.88;;;0.39;98.33
83100;BME280;72972;51.784;4.660;2023-12-07T06:36:24;102171.47;;;0.35;98.52
83100;BME280;72972;51.784;4.660;2023-12-07T06:38:54;102169.16;;;0.43;98.98
83100;BME280;72972;51.784;4.660;2023-12-07T06:41:23;102162.78;;;0.44;99.16
83100;BME280;72972;51.784;4.660;2023-12-07T06:43:48;102170.78;;;0.45;98.58
83100;BME280;72972;51.784;4.660;2023-12-07T06:46:14;102184.94;;;0.49;99.18
83100;BME280;72972;51.784;4.660;2023-12-07T06:48:41;102180.50;;;0.48;98.87
83100;BME280;72972;51.784;4.660;2023-12-07T06:51:07;102159.41;;;0.40;99.08
83100;BME280;72972;51.784;4.660;2023-12-07T06:53:32;102161.59;;;0.48;98.84
83100;BME280;72972;51.784;4.660;2023-12-07T06:55:58;102161.69;;;0.46;99.24
83100;BME280;72972;51.784;4.660;2023-12-07T06:58:24;102166.78;;;0.51;99.07
83100;BME280;72972;51.784;4.660;2023-12-07T07:00:50;102168.66;;;0.50;98.70
83100;BME280;72972;51.784;4.660;2023-12-07T07:03:15;102172.88;;;0.54;99.02
83100;BME280;72972;51.784;4.660;2023-12-07T07:05:42;102168.44;;;0.53;99.19
83100;BME280;72972;51.784;4.660;2023-12-07T07:08:08;102168.03;;;0.59;99.35
83100;BME280;72972;51.784;4.660;2023-12-07T07:10:34;102164.66;;;0.56;99.24
83100;BME280;72972;51.784;4.660;2023-12-07T07:13:03;102167.16;;;0.59;99.23
83100;BME280;72972;51.784;4.660;2023-12-07T07:15:30;102161.88;;;0.57;99.10
83100;BME280;72972;51.784;4.660;2023-12-07T07:17:56;102162.75;;;0.58;99.10
83100;BME280;72972;51.784;4.660;2023-12-07T07:20:21;102159.28;;;0.56;98.96
83100;BME280;72972;51.784;4.660;2023-12-07T07:22:47;102155.59;;;0.57;99.42
83100;BME280;72972;51.784;4.660;2023-12-07T07:25:13;102163.47;;;0.60;99.02
83100;BME280;72972;51.784;4.660;2023-12-07T07:27:40;102152.16;;;0.55;99.47
83100;BME280;72972;51.784;4.660;2023-12-07T07:30:06;102169.56;;;0.63;99.85
83100;BME280;72972;51.784;4.660;2023-12-07T07:32:32;102165.88;;;0.64;99.09
83100;BME280;72972;51.784;4.660;2023-12-07T07:34:57;102152.16;;;0.55;99.17
83100;BME280;72972;51.784;4.660;2023-12-07T07:37:23;102159.75;;;0.62;99.32
83100;BME280;72972;51.784;4.660;2023-12-07T07:39:49;102162.88;;;0.69;99.10
83100;BME280;72972;51.784;4.660;2023-12-07T07:42:15;102164.63;;;0.70;99.59
83100;BME280;72972;51.784;4.660;2023-12-07T07:44:41;102152.69;;;0.60;99.03
83100;BME280;72972;51.784;4.660;2023-12-07T07:47:07;102173.25;;;0.75;99.68
83100;BME280;72972;51.784;4.660;2023-12-07T07:49:34;102152.97;;;0.69;99.31
83100;BME280;72972;51.784;4.660;2023-12-07T07:51:59;102166.25;;;0.72;99.53
83100;BME280;72972;51.784;4.660;2023-12-07T07:54:25;102156.63;;;0.68;99.43
83100;BME280;72972;51.784;4.660;2023-12-07T07:56:50;102177.41;;;0.80;99.68
83100;BME280;72972;51.784;4.660;2023-12-07T07:59:16;102187.13;;;0.83;99.56
83100;BME280;72972;51.784;4.660;2023-12-07T08:01:42;102171.25;;;0.78;99.44
83100;BME280;72972;51.784;4.660;2023-12-07T08:04:09;102171.91;;;0.82;99.95
83100;BME280;72972;51.784;4.660;2023-12-07T08:06:35;102165.44;;;0.84;99.85
83100;BME280;72972;51.784;4.660;2023-12-07T08:09:01;102155.50;;;0.85;99.47
83100;BME280;72972;51.784;4.660;2023-12-07T08:11:26;102162.97;;;0.94;100.00
83100;BME280;72972;51.784;4.660;2023-12-07T08:13:52;102165.38;;;0.98;99.60
83100;BME280;72972;51.784;4.660;2023-12-07T08:16:18;102170.78;;;0.98;99.72
83100;BME280;72972;51.784;4.660;2023-12-07T08:18:44;102176.84;;;1.02;99.49
83100;BME280;72972;51.784;4.660;2023-12-07T08:21:21;102179.53;;;1.02;99.44
83100;BME280;72972;51.784;4.660;2023-12-07T08:23:47;102164.50;;;0.98;99.71
83100;BME280;72972;51.784;4.660;2023-12-07T08:26:13;102169.47;;;1.04;99.66
83100;BME280;72972;51.784;4.660;2023-12-07T08:28:43;102168.53;;;1.05;99.55
83100;BME280;72972;51.784;4.660;2023-12-07T08:31:09;102161.47;;;1.02;99.47
83100;BME280;72972;51.784;4.660;2023-12-07T08:33:34;102172.63;;;1.10;99.63
83100;BME280;72972;51.784;4.660;2023-12-07T08:36:01;102164.31;;;1.13;99.68
83100;BME280;72972;51.784;4.660;2023-12-07T08:38:27;102151.91;;;1.11;99.56
83100;BME280;72972;51.784;4.660;2023-12-07T08:40:53;102152.34;;;1.17;99.37
83100;BME280;72972;51.784;4.660;2023-12-07T08:43:21;102162.84;;;1.22;99.24
83100;BME280;72972;51.784;4.660;2023-12-07T08:45:51;102160.88;;;1.24;99.07
83100;BME280;72972;51.784;4.660;2023-12-07T08:48:20;102152.56;;;1.27;98.89
83100;BME280;72972;51.784;4.660;2023-12-07T08:50:46;102140.59;;;1.31;98.96
83100;BME280;72972;51.784;4.660;2023-12-07T08:53:12;102133.13;;;1.22;99.16
83100;BME280;72972;51.784;4.660;2023-12-07T08:55:37;102143.41;;;1.29;99.22
83100;BME280;72972;51.784;4.660;2023-12-07T08:58:03;102154.00;;;1.32;99.06
83100;BME280;72972;51.784;4.660;2023-12-07T09:00:32;102145.25;;;1.29;98.86
83100;BME280;72972;51.784;4.660;2023-12-07T09:02:58;102161.03;;;1.35;98.84
83100;BME280;72972;51.784;4.660;2023-12-07T09:05:28;102164.50;;;1.37;98.92
83100;BME280;72972;51.784;4.660;2023-12-07T09:07:55;102166.78;;;1.43;98.98
83100;BME280;72972;51.784;4.660;2023-12-07T09:10:22;102155.84;;;1.32;98.80
83100;BME280;72972;51.784;4.660;2023-12-07T09:12:48;102163.63;;;1.36;98.41
83100;BME280;72972;51.784;4.660;2023-12-07T09:15:14;102170.44;;;1.42;98.53
83100;BME280;72972;51.784;4.660;2023-12-07T09:17:40;102163.09;;;1.44;98.17
83100;BME280;72972;51.784;4.660;2023-12-07T09:20:10;102156.69;;;1.45;98.14
83100;BME280;72972;51.784;4.660;2023-12-07T09:25:05;102134.88;;;1.35;98.48
83100;BME280;72972;51.784;4.660;2023-12-07T09:27:30;102125.56;;;1.39;98.46
83100;BME280;72972;51.784;4.660;2023-12-07T09:29:58;102146.44;;;1.50;98.76
83100;BME280;72972;51.784;4.660;2023-12-07T09:32:24;102137.34;;;1.51;98.57
83100;BME280;72972;51.784;4.660;2023-12-07T09:34:49;102129.78;;;1.56;98.32
83100;BME280;72972;51.784;4.660;2023-12-07T09:37:16;102105.13;;;1.48;98.55
83100;BME280;72972;51.784;4.660;2023-12-07T09:39:42;102112.69;;;1.55;98.49
83100;BME280;72972;51.784;4.660;2023-12-07T09:42:08;102112.41;;;1.60;98.79
83100;BME280;72972;51.784;4.660;2023-12-07T09:44:34;102109.25;;;1.66;98.68
83100;BME280;72972;51.784;4.660;2023-12-07T09:46:59;102094.97;;;1.64;98.42
83100;BME280;72972;51.784;4.660;2023-12-07T09:49:25;102109.56;;;1.74;98.23
83100;BME280;72972;51.784;4.660;2023-12-07T09:51:50;102100.94;;;1.69;98.23
83100;BME280;72972;51.784;4.660;2023-12-07T09:54:17;102094.97;;;1.76;98.51
83100;BME280;72972;51.784;4.660;2023-12-07T09:56:44;102094.53;;;1.83;98.31
83100;BME280;72972;51.784;4.660;2023-12-07T09:59:10;102077.97;;;1.74;97.75
83100;BME280;72972;51.784;4.660;2023-12-07T10:01:35;102108.56;;;1.88;97.97
83100;BME280;72972;51.784;4.660;2023-12-07T10:04:21;102095.16;;;1.86;97.91
83100;BME280;72972;51.784;4.660;2023-12-07T10:06:48;102068.44;;;1.81;97.64
83100;BME280;72972;51.784;4.660;2023-12-07T10:09:15;102068.00;;;1.88;96.84
83100;BME280;72972;51.784;4.660;2023-12-07T10:11:41;102075.78;;;1.92;96.93
83100;BME280;72972;51.784;4.660;2023-12-07T10:14:09;102067.44;;;1.95;96.83
83100;BME280;72972;51.784;4.660;2023-12-07T10:16:34;102074.91;;;2.04;96.82
83100;BME280;72972;51.784;4.660;2023-12-07T10:19:16;102073.03;;;2.05;96.62
83100;BME280;72972;51.784;4.660;2023-12-07T10:21:44;102077.50;;;2.06;96.83
83100;BME280;72972;51.784;4.660;2023-12-07T10:24:11;102072.94;;;2.06;96.16
83100;BME280;72972;51.784;4.660;2023-12-07T10:26:40;102070.00;;;2.09;96.32
83100;BME280;72972;51.784;4.660;2023-12-07T10:29:05;102048.81;;;2.03;96.41
83100;BME280;72972;51.784;4.660;2023-12-07T10:31:32;102051.81;;;2.11;95.99
83100;BME280;72972;51.784;4.660;2023-12-07T10:34:01;102056.47;;;2.09;95.39
83100;BME280;72972;51.784;4.660;2023-12-07T10:36:27;102054.09;;;2.05;96.03
83100;BME280;72972;51.784;4.660;2023-12-07T10:38:53;102056.34;;;2.11;96.14
83100;BME280;72972;51.784;4.660;2023-12-07T10:41:20;102045.31;;;2.14;96.30
83100;BME280;72972;51.784;4.660;2023-12-07T10:43:49;102032.66;;;2.14;95.30
83100;BME280;72972;51.784;4.660;2023-12-07T10:46:16;102035.25;;;2.16;95.65
83100;BME280;72972;51.784;4.660;2023-12-07T10:48:45;102014.84;;;2.23;95.44
83100;BME280;72972;51.784;4.660;2023-12-07T10:51:22;102016.75;;;2.33;95.90
83100;BME280;72972;51.784;4.660;2023-12-07T10:53:51;102001.09;;;2.26;95.31
83100;BME280;72972;51.784;4.660;2023-12-07T10:56:28;102007.97;;;2.42;95.02
83100;BME280;72972;51.784;4.660;2023-12-07T10:58:56;101995.22;;;2.32;94.88
83100;BME280;72972;51.784;4.660;2023-12-07T11:01:23;102007.31;;;2.39;95.41
83100;BME280;72972;51.784;4.660;2023-12-07T11:03:50;102000.78;;;2.41;95.02
83100;BME280;72972;51.784;4.660;2023-12-07T11:06:18;101994.91;;;2.47;95.18
83100;BME280;72972;51.784;4.660;2023-12-07T11:08:58;101962.72;;;2.32;94.71
83100;BME280;72972;51.784;4.660;2023-12-07T11:11:29;101992.09;;;2.49;94.64
83100;BME280;72972;51.784;4.660;2023-12-07T11:14:03;101979.13;;;2.41;94.67
83100;BME280;72972;51.784;4.660;2023-12-07T11:16:34;101987.53;;;2.49;94.59
83100;BME280;72972;51.784;4.660;2023-12-07T11:19:00;101981.38;;;2.47;94.77
83100;BME280;72972;51.784;4.660;2023-12-07T11:21:26;101977.19;;;2.43;94.10
83100;BME280;72972;51.784;4.660;2023-12-07T11:23:53;101988.53;;;2.48;94.60
83100;BME280;72972;51.784;4.660;2023-12-07T11:26:22;101974.88;;;2.50;94.48
83100;BME280;72972;51.784;4.660;2023-12-07T11:28:48;101975.59;;;2.52;94.12
83100;BME280;72972;51.784;4.660;2023-12-07T11:31:14;101973.06;;;2.61;94.14
83100;BME280;72972;51.784;4.660;2023-12-07T11:33:41;101979.47;;;2.60;94.32
83100;BME280;72972;51.784;4.660;2023-12-07T11:36:11;101973.94;;;2.62;93.87
83100;BME280;72972;51.784;4.660;2023-12-07T11:38:38;101947.69;;;2.62;94.34
83100;BME280;72972;51.784;4.660;2023-12-07T11:41:20;101949.31;;;2.76;93.65
83100;BME280;72972;51.784;4.660;2023-12-07T11:43:46;101952.91;;;2.76;93.64
83100;BME280;72972;51.784;4.660;2023-12-07T11:46:12;101940.13;;;2.78;93.81
83100;BME280;72972;51.784;4.660;2023-12-07T11:48:39;101955.16;;;2.93;94.18
83100;BME280;72972;51.784;4.660;2023-12-07T11:51:06;101936.56;;;2.89;93.56
83100;BME280;72972;51.784;4.660;2023-12-07T11:53:37;101920.31;;;2.89;93.40
83100;BME280;72972;51.784;4.660;2023-12-07T11:56:04;101927.69;;;2.98;93.36
83100;BME280;72972;51.784;4.660;2023-12-07T11:58:32;101916.75;;;2.99;92.96
83100;BME280;72972;51.784;4.660;2023-12-07T12:01:02;101924.25;;;3.07;92.53
83100;BME280;72972;51.784;4.660;2023-12-07T12:03:28;101924.63;;;3.13;92.70
83100;BME280;72972;51.784;4.660;2023-12-07T12:05:55;101908.38;;;3.13;92.94
83100;BME280;72972;51.784;4.660;2023-12-07T12:08:21;101909.72;;;3.19;92.75
83100;BME280;72972;51.784;4.660;2023-12-07T12:10:48;101857.13;;;2.99;92.80
83100;BME280;72972;51.784;4.660;2023-12-07T12:13:15;101865.63;;;2.95;92.47
83100;BME280;72972;51.784;4.660;2023-12-07T12:15:41;101863.78;;;3.06;92.51
83100;BME280;72972;51.784;4.660;2023-12-07T12:18:08;101842.84;;;2.97;92.62
83100;BME280;72972;51.784;4.660;2023-12-07T12:20:34;101845.91;;;3.04;92.42
83100;BME280;72972;51.784;4.660;2023-12-07T12:23:00;101819.69;;;2.93;92.73
83100;BME280;72972;51.784;4.660;2023-12-07T12:25:28;101840.13;;;3.08;92.66
83100;BME280;72972;51.784;4.660;2023-12-07T12:27:56;101818.56;;;3.07;92.98
83100;BME280;72972;51.784;4.660;2023-12-07T12:30:23;101808.59;;;3.07;93.15
83100;BME280;72972;51.784;4.660;2023-12-07T12:32:50;101817.44;;;3.20;92.53
83100;BME280;72972;51.784;4.660;2023-12-07T12:35:17;101810.31;;;3.19;92.65
83100;BME280;72972;51.784;4.660;2023-12-07T12:37:44;101794.31;;;3.16;93.12
83100;BME280;72972;51.784;4.660;2023-12-07T12:40:11;101806.84;;;3.28;92.22
83100;BME280;72972;51.784;4.660;2023-12-07T12:42:37;101800.22;;;3.21;92.11
83100;BME280;72972;51.784;4.660;2023-12-07T12:45:24;101789.81;;;3.26;92.15
83100;BME280;72972;51.784;4.660;2023-12-07T12:47:50;101785.16;;;3.28;92.15
83100;BME280;72972;51.784;4.660;2023-12-07T12:53:02;101785.97;;;3.40;92.63
83100;BME280;72972;51.784;4.660;2023-12-07T12:55:33;101778.56;;;3.42;92.70
83100;BME280;72972;51.784;4.660;2023-12-07T12:58:00;101784.88;;;3.42;92.35
83100;BME280;72972;51.784;4.660;2023-12-07T13:00:26;101782.59;;;3.47;91.82